Flight Track Log - Related Links

Times and Time Zones

All times are in EDT time to prevent confusion due to time zone crossing. See the AAL1624 flight status page for this flight to view local times or setup timezone preferences in your user account.

Time Position Orientation Groundspeed Altitude Reporting Facility
EDT Latitude Longitude Course Direction KTS MPH feet Rate Location/Type
Wed 06:41:42 PM 33.9339 -118.4386 59° Northeast 170 196 1,500  Level Los Angeles Center
Wed 06:42:56 PM 33.9172 -118.5078 254° West 207 238 2,700 1,577 Climbing Los Angeles Center
Wed 06:43:00 PM 34.0575 -118.1925 40° Northeast  Level FlightAware Approximate
Wed 06:43:59 PM 33.8681 -118.5944 236° Southwest 271 312 5,100  Level Los Angeles Center
Wed 06:44:00 PM 34.1329 -118.0675 59° Northeast  Level FlightAware Approximate
Wed 06:45:00 PM 34.1994 -117.9345 59° Northeast  Level FlightAware Approximate
Wed 06:45:01 PM 33.8164 -118.5347 136° Southeast 288 331 7,200  Level Los Angeles Center
Wed 06:46:00 PM 34.2659 -117.8015 59° Northeast  Level FlightAware Approximate
Wed 06:46:03 PM 33.8758 -118.4703 42° Northeast 287 330 9,600  Level Los Angeles Center
Wed 06:47:00 PM 34.3497 -117.6840 59° Northeast  Level FlightAware Approximate
Wed 06:47:05 PM 33.9456 -118.4100 36° Northeast 312 359 11,800  Level Los Angeles Center
Wed 06:48:07 PM 33.9992 -118.3186 55° Northeast 330 380 13,400 1,645 Climbing Los Angeles Center
Wed 06:49:09 PM 34.0581 -118.2103 57° Northeast 380 437 15,200 1,887 Climbing Los Angeles Center
Wed 06:50:11 PM 34.1211 -118.1033 55° Northeast 390 449 17,300 2,064 Climbing Los Angeles Center
Wed 06:51:14 PM 34.1858 -117.9847 57° Northeast 414 476 19,500 2,256 Climbing Los Angeles Center
Wed 06:52:16 PM 34.2678 -117.8422 55° Northeast 429 494 22,000 2,129 Climbing Los Angeles Center
Wed 06:53:18 PM 34.3364 -117.7183 56° Northeast 440 506 23,900 968 Climbing Los Angeles Center
Wed 06:54:20 PM 34.4094 -117.5847 56° Northeast 449 517 24,000 48 Climbing Los Angeles Center
Wed 06:55:22 PM 34.4789 -117.4578 56° Northeast 454 522 24,000 823 Level Los Angeles Center
Wed 06:56:24 PM 34.5497 -117.3317 56° Northeast 456 525 25,700 1,403 Climbing Los Angeles Center
Wed 06:57:26 PM 34.6064 -117.2272 57° Northeast 465 535 26,900 629 Climbing Los Angeles Center
Wed 06:58:28 PM 34.6936 -117.0683 56° Northeast 474 545 27,000 48 Climbing Los Angeles Center
Wed 06:59:30 PM 34.7808 -116.9103 56° Northeast 473 544 27,000  Level Los Angeles Center
Wed 07:00:33 PM 34.8658 -116.7931 49° Northeast 465 535 27,000  Level Los Angeles Center
Wed 07:01:35 PM 34.9542 -116.6769 47° Northeast 468 539 27,000  Level Los Angeles Center
Wed 07:02:37 PM 35.0436 -116.5594 47° Northeast 473 544 27,000  Level Los Angeles Center
Wed 07:03:39 PM 35.1306 -116.4428 48° Northeast 470 541 27,000 242 Level Los Angeles Center
Wed 07:04:41 PM 35.2356 -116.3014 48° Northeast 469 540 27,500 823 Climbing Los Angeles Center
Wed 07:05:43 PM 35.3269 -116.1797 47° Northeast 481 554 28,700 1,161 Climbing Los Angeles Center
Wed 07:06:45 PM 35.4194 -116.0542 48° Northeast 495 570 29,900 1,161 Climbing Los Angeles Center
Wed 07:07:47 PM 35.5136 -115.9269 48° Northeast 504 580 31,100 1,355 Climbing Los Angeles Center
Wed 07:08:49 PM 35.6192 -115.7864 47° Northeast 507 583 32,700 1,355 Climbing Los Angeles Center
Wed 07:09:51 PM 35.7136 -115.6586 48° Northeast 506 582 33,900 1,008 Climbing Los Angeles Center
Wed 07:10:54 PM 35.8086 -115.5303 48° Northeast 509 586 34,800 528 Climbing Los Angeles Center
Wed 07:11:56 PM 35.9217 -115.3761 48° Northeast 510 587 35,000 97 Climbing Los Angeles Center
Wed 07:12:58 PM 36.0142 -115.2483 48° Northeast 503 579 35,000  Level Los Angeles Center
Wed 07:14:00 PM 36.0961 -115.1125 53° Northeast 498 573 35,000  Level Los Angeles Center
Wed 07:15:02 PM 36.1486 -114.9492 68° East 509 586 35,000  Level Los Angeles Center
Wed 07:16:04 PM 36.1986 -114.7842 69° East 514 592 35,000  Level Los Angeles Center
Wed 07:17:06 PM 36.2603 -114.5878 69° East 513 590 35,000  Level Los Angeles Center
Wed 07:18:08 PM 36.3100 -114.4219 70° East 514 592 35,000  Level Los Angeles Center
Wed 07:19:10 PM 36.3611 -114.2553 69° East 517 595 35,000  Level Los Angeles Center
Wed 07:20:12 PM 36.4008 -114.1228 70° East 515 593 35,000  Level Los Angeles Center
Wed 07:21:14 PM 36.4619 -113.9217 69° East 519 597 35,000  Level Los Angeles Center
Wed 07:22:16 PM 36.5208 -113.7253 69° East 519 597 35,000  Level Los Angeles Center
Wed 07:23:31 PM 36.5714 -113.5569 69° East 521 600 35,000  Level Los Angeles Center
Wed 07:24:33 PM 36.6319 -113.3539 70° East 523 602 35,000  Level Los Angeles Center
Wed 07:25:35 PM 36.6717 -113.2181 70° East 524 603 35,000  Level Los Angeles Center
Wed 07:26:37 PM 36.7317 -113.0150 70° East 524 603 35,000  Level Los Angeles Center
Wed 07:27:39 PM 36.7906 -112.8122 70° East 522 601 35,000  Level Los Angeles Center
Wed 07:28:42 PM 36.8411 -112.6433 69° East 524 603 35,000  Level Los Angeles Center
Wed 07:29:44 PM 36.8894 -112.4739 70° East 522 601 35,000  Level Los Angeles Center
Wed 07:30:46 PM 36.9383 -112.3036 70° East 524 603 35,000  Level Los Angeles Center
Wed 07:31:48 PM 36.9864 -112.1339 70° East 523 602 35,000 145 Level Los Angeles Center
Wed 07:32:50 PM 37.0444 -111.9294 70° East 523 602 35,300 677 Climbing Los Angeles Center
Wed 07:33:52 PM 37.0928 -111.7586 70° East 524 603 36,400 903 Climbing Los Angeles Center
Wed 07:34:43 PM 37.1322 -111.6225 70° East 523 602 37,000 319 Climbing Denver Center
Wed 07:35:45 PM 37.1761 -111.4544 72° East 514 592 37,000  Level Denver Center
Wed 07:36:47 PM 37.2231 -111.2844 71° East 518 596 37,000  Level Denver Center
Wed 07:37:49 PM 37.2783 -111.0808 71° East 517 595 37,000  Level Denver Center
Wed 07:38:51 PM 37.3242 -110.9117 71° East 515 593 37,000  Level Denver Center
Wed 07:39:53 PM 37.3711 -110.7394 71° East 523 602 37,000  Level Denver Center
Wed 07:40:55 PM 37.4169 -110.5675 71° East 520 598 37,000  Level Denver Center
Wed 07:41:57 PM 37.4619 -110.3961 72° East 519 597 37,000  Level Denver Center
Wed 07:43:00 PM 37.5128 -110.2028 72° East 519 597 37,000  Level Denver Center
Wed 07:44:02 PM 37.5569 -110.0375 71° East 520 598 37,000  Level Denver Center
Wed 07:45:04 PM 37.6072 -109.8436 72° East 521 600 37,000  Level Denver Center
Wed 07:46:06 PM 37.6506 -109.6761 72° East 522 601 37,000  Level Denver Center
Wed 07:47:08 PM 37.7008 -109.4800 72° East 524 603 37,000  Level Denver Center
Wed 07:48:10 PM 37.7436 -109.3128 72° East 523 602 37,000  Level Denver Center
Wed 07:49:12 PM 37.7922 -109.1169 73° East 523 602 37,000  Level Denver Center
Wed 07:50:14 PM 37.8347 -108.9508 72° East 520 598 37,000  Level Denver Center
Wed 07:51:16 PM 37.8831 -108.7542 73° East 523 602 37,000  Level Denver Center
Wed 07:52:18 PM 37.9242 -108.5867 73° East 521 600 37,000  Level Denver Center
Wed 07:53:20 PM 37.9653 -108.4189 73° East 522 601 37,000  Level Denver Center
Wed 07:54:22 PM 38.0122 -108.2264 73° East 516 594 37,000  Level Denver Center
Wed 07:55:24 PM 38.0536 -108.0606 72° East 514 592 37,000  Level Denver Center
Wed 07:56:26 PM 38.0997 -107.8636 73° East 519 597 37,000  Level Denver Center
Wed 07:57:28 PM 38.1392 -107.6967 73° East 518 596 37,000  Level Denver Center
Wed 07:58:30 PM 38.1842 -107.5067 73° East 509 586 37,000  Level Denver Center
Wed 07:59:32 PM 38.2231 -107.3425 73° East 507 583 37,000  Level Denver Center
Wed 08:00:35 PM 38.2658 -107.1606 73° East 510 587 37,000  Level Denver Center
Wed 08:01:37 PM 38.3047 -106.9889 74° East 506 582 37,000  Level Denver Center
Wed 08:02:39 PM 38.3497 -106.7947 73° East 506 582 37,000  Level Denver Center
Wed 08:03:41 PM 38.3828 -106.6481 74° East 500 575 37,000  Level Denver Center
Wed 08:04:43 PM 38.4286 -106.4442 74° East 501 577 37,000  Level Denver Center
Wed 08:05:45 PM 38.4658 -106.2742 74° East 501 577 37,000  Level Denver Center
Wed 08:06:47 PM 38.5067 -106.0939 74° East 500 575 37,000  Level Denver Center
Wed 08:07:49 PM 38.5428 -105.9306 74° East 500 575 37,000  Level Denver Center
Wed 08:08:51 PM 38.5819 -105.7497 74° East 500 575 37,000  Level Denver Center
Wed 08:09:53 PM 38.6189 -105.5806 74° East 496 571 37,000  Level Denver Center
Wed 08:10:55 PM 38.6556 -105.4122 74° East 495 570 37,000  Level Denver Center
Wed 08:11:57 PM 38.6989 -105.2117 74° East 490 564 37,000  Level Denver Center
Wed 08:13:00 PM 38.7324 -105.0467 75° East  Level FlightAware Approximate
Wed 08:14:01 PM 38.7694 -104.8736 75° East 495 570 37,000  Level Denver Center
Wed 08:15:03 PM 38.8050 -104.7081 75° East 488 562 37,000 484 Level Denver Center
Wed 08:16:05 PM 38.8397 -104.5397 75° East 490 564 38,000 968 Climbing Denver Center
Wed 08:17:07 PM 38.8789 -104.3428 76° East 480 552 39,000 484 Climbing Denver Center
Wed 08:18:09 PM 38.9136 -104.1775 75° East 481 554 39,000  Level Denver Center
Wed 08:19:11 PM 38.9464 -104.0108 76° East 485 558 39,000  Level Denver Center
Wed 08:20:13 PM 38.9803 -103.8467 75° East 481 554 39,000  Level Denver Center
Wed 08:21:15 PM 39.0136 -103.6825 75° East 478 550 39,000  Level Denver Center
Wed 08:22:17 PM 39.0458 -103.5183 76° East 476 548 39,000  Level Denver Center
Wed 08:23:20 PM 39.0833 -103.3231 76° East 471 542 39,000  Level Denver Center
Wed 08:24:22 PM 39.1147 -103.1586 76° East 474 545 39,000  Level Denver Center
Wed 08:25:24 PM 39.1469 -102.9944 76° East 475 547 39,000  Level Denver Center
Wed 08:26:26 PM 39.1786 -102.8289 76° East 477 549 39,000  Level Denver Center
Wed 08:27:28 PM 39.2142 -102.6400 76° East 483 556 39,000  Level Denver Center
Wed 08:28:30 PM 39.2458 -102.4794 76° East 483 556 39,000  Level Denver Center
Wed 08:29:32 PM 39.2831 -102.2925 76° East 481 554 39,000  Level Denver Center
Wed 08:30:34 PM 39.3169 -102.1319 75° East 484 557 39,000  Level Denver Center
Wed 08:31:36 PM 39.3564 -101.9397 75° East 486 559 39,000  Level Denver Center
Wed 08:32:38 PM 39.3903 -101.7792 75° East 485 558 39,000  Level Denver Center
Wed 08:33:40 PM 39.4106 -101.6147 81° East 486 559 39,000  Level Denver Center
Wed 08:34:54 PM 39.4347 -101.3947 82° East 485 558 39,000  Level Denver Center
Wed 08:35:56 PM 39.4544 -101.2019 82° East 485 558 39,000  Level Denver Center
Wed 08:36:59 PM 39.4728 -101.0364 82° East 486 559 39,000  Level Denver Center
Wed 08:38:01 PM 39.4928 -100.8450 82° East 483 556 39,000  Level Denver Center
Wed 08:39:03 PM 39.5086 -100.6794 83° East 485 558 39,000  Level Denver Center
Wed 08:40:05 PM 39.5289 -100.4889 82° East 482 555 39,000  Level Denver Center
Wed 08:41:07 PM 39.5453 -100.3261 83° East 479 551 39,000  Level Denver Center
Wed 08:42:09 PM 39.5647 -100.1331 82° East 484 557 39,000  Level Denver Center
Wed 08:43:11 PM 39.5808 -99.9664 83° East 487 560 39,000  Level Denver Center
Wed 08:44:13 PM 39.5967 -99.8008 83° East 487 560 39,000  Level Denver Center
Wed 08:45:15 PM 39.6167 -99.5894 83° East 493 567 39,000  Level Denver Center
Wed 08:46:17 PM 39.6328 -99.4131 83° East 494 568 39,000  Level Denver Center
Wed 08:47:31 PM 39.6519 -99.2011 83° East 494 568 39,000  Level Denver Center
Wed 08:48:34 PM 39.6669 -99.0253 84° East 493 567 39,000  Level Denver Center
Wed 08:49:36 PM 39.6831 -98.8503 83° East 490 564 39,000  Level Denver Center
Wed 08:50:22 PM 39.6944 -98.7114 84° East 492 566 39,000  Level Minneapolis Center
Wed 08:51:24 PM 39.7086 -98.5383 84° East 488 562 39,000  Level Minneapolis Center
Wed 08:52:26 PM 39.7261 -98.3297 84° East 486 559 39,000  Level Minneapolis Center
Wed 08:53:28 PM 39.7406 -98.1553 84° East 487 560 39,000  Level Minneapolis Center
Wed 08:54:30 PM 39.7542 -97.9789 84° East 490 564 39,000  Level Minneapolis Center
Wed 08:55:32 PM 39.7678 -97.7983 84° East 498 573 39,000  Level Minneapolis Center
Wed 08:56:34 PM 39.7825 -97.6203 84° East 498 573 39,000  Level Minneapolis Center
Wed 08:58:38 PM 39.8092 -97.2522 84° East 499 574 39,000  Level Minneapolis Center
Wed 08:59:42 PM 39.8233 -97.0361 85° East 501 577 39,000  Level Minneapolis Center
Wed 09:00:44 PM 39.8364 -96.8558 85° East 502 578 39,000  Level Minneapolis Center
Wed 09:01:46 PM 39.8494 -96.6747 85° East 503 579 39,000  Level Minneapolis Center
Wed 09:02:48 PM 39.8622 -96.4925 85° East 506 582 39,000  Level Minneapolis Center
Wed 09:03:50 PM 39.8736 -96.3097 85° East 509 586 39,000  Level Minneapolis Center
Wed 09:04:52 PM 39.8850 -96.1247 85° East 512 589 39,000  Level Minneapolis Center
Wed 09:05:54 PM 39.8989 -95.9033 85° East 513 590 39,000  Level Minneapolis Center
Wed 09:07:20 PM 39.9147 -95.6611 85° East 514 592 39,000  Level Kansas City Center
Wed 09:08:21 PM 39.9275 -95.4531 85° East 514 592 39,000  Level Kansas City Center
Wed 09:09:23 PM 39.9369 -95.2750 86° East 513 590 39,000  Level Kansas City Center
Wed 09:10:25 PM 39.9481 -95.0686 86° East 512 589 39,000  Level Kansas City Center
Wed 09:11:26 PM 39.9572 -94.8911 86° East 511 588 39,000  Level Kansas City Center
Wed 09:12:28 PM 39.9672 -94.7142 86° East 510 587 39,000  Level Kansas City Center
Wed 09:13:30 PM 39.9767 -94.5075 87° East 510 587 39,000  Level Kansas City Center
Wed 09:14:31 PM 39.9853 -94.3286 86° East 513 590 39,000  Level Kansas City Center
Wed 09:15:33 PM 39.9958 -94.1219 86° East 512 589 39,000  Level Kansas City Center
Wed 09:16:35 PM 40.0022 -93.9550 87° East 518 596 39,000  Level Kansas City Center
Wed 09:17:36 PM 40.0225 -93.7708 82° East 519 597 39,000  Level Kansas City Center
Wed 09:18:38 PM 40.0433 -93.5514 83° East 515 593 39,000  Level Kansas City Center
Wed 09:19:40 PM 40.0628 -93.3678 82° East 516 594 39,000  Level Kansas City Center
Wed 09:20:42 PM 40.1072 -93.1919 72° East 513 590 39,000  Level Kansas City Center
Wed 09:21:43 PM 40.1536 -93.0114 71° East 513 590 39,000  Level Kansas City Center
Wed 09:22:45 PM 40.2042 -92.8156 71° East 511 588 39,000  Level Kansas City Center
Wed 09:23:46 PM 40.2467 -92.6472 72° East 510 587 39,000  Level Kansas City Center
Wed 09:24:48 PM 40.2919 -92.4792 70° East 510 587 39,000  Level Kansas City Center
Wed 09:25:50 PM 40.3353 -92.2958 73° East 517 595 39,000  Level Kansas City Center
Wed 09:26:51 PM 40.3792 -92.1206 72° East 516 594 39,000 -732 Level Kansas City Center
Wed 09:27:53 PM 40.4300 -91.9108 72° East 510 587 37,500 -1,610 Descending Kansas City Center
Wed 09:28:54 PM 40.4714 -91.7397 72° East 501 577 35,700 -1,756 Descending Kansas City Center
Wed 09:29:56 PM 40.5106 -91.5767 72° East 481 554 33,900 -1,306 Descending Kansas City Center
Wed 09:30:58 PM 40.5506 -91.4108 72° East 479 551 33,000 -439 Descending Kansas City Center
Wed 09:31:59 PM 40.6067 -91.2411 66° East 477 549 33,000  Level Kansas City Center
Wed 09:33:08 PM 40.6742 -91.0511 65° Northeast 478 550 33,000 -1,145 Level Chicago Center
Wed 09:34:10 PM 40.7292 -90.8903 66° East 481 554 30,500 -1,680 Descending Chicago Center
Wed 09:35:13 PM 40.7842 -90.7278 66° East 484 557 29,500 -864 Descending Chicago Center
Wed 09:36:15 PM 40.8375 -90.5692 66° East 475 547 28,700 -726 Descending Chicago Center
Wed 09:37:17 PM 40.8911 -90.4092 66° East 475 547 28,000 -726 Descending Chicago Center
Wed 09:38:19 PM 40.9481 -90.2383 66° East 465 535 27,200 -774 Descending Chicago Center
Wed 09:39:21 PM 40.9978 -90.0861 67° East 456 525 26,400 -774 Descending Chicago Center
Wed 09:40:23 PM 41.0544 -89.9164 66° East 444 511 25,600 -726 Descending Chicago Center
Wed 09:41:25 PM 41.1033 -89.7661 67° East 442 509 24,900 -1,210 Descending Chicago Center
Wed 09:42:27 PM 41.1514 -89.6175 67° East 438 504 23,100 -1,805 Descending Chicago Center
Wed 09:43:28 PM 41.2033 -89.4792 63° Northeast 424 488 21,200 -1,756 Descending Chicago Center
Wed 09:44:30 PM 41.2578 -89.3481 61° Northeast 412 474 19,500 -1,645 Descending Chicago Center
Wed 09:45:32 PM 41.3092 -89.2197 62° Northeast 398 458 17,800 -1,584 Descending Chicago Center
Wed 09:46:35 PM 41.3558 -89.0989 63° Northeast 373 429 16,200 -1,742 Descending Chicago Center
Wed 09:47:36 PM 41.4153 -88.9519 62° Northeast 376 433 14,200 -1,707 Descending Chicago Center
Wed 09:48:38 PM 41.4622 -88.8328 62° Northeast 366 421 12,700 -1,500 Descending Chicago Center
Wed 09:49:40 PM 41.5089 -88.7164 62° Northeast 359 413 11,100 -878 Descending Chicago Center
Wed 09:50:41 PM 41.5528 -88.6053 62° Northeast 340 391 10,900 -98 Descending Chicago Center
Wed 09:51:43 PM 41.5903 -88.5036 64° Northeast 308 354 10,900 -774 Level Chicago Center
Wed 09:52:45 PM 41.6064 -88.3922 79° East 308 354 9,300 -1,403 Descending Chicago Center
Wed 09:53:47 PM 41.6272 -88.2833 76° East 306 352 8,000 -829 Descending Chicago Center
Wed 09:54:48 PM 41.6997 -88.1975 41° Northeast 287 330 7,600 -976 Descending Chicago Center
Wed 09:55:50 PM 41.7558 -88.1308 42° Northeast 270 311 6,000 -1,548 Descending Chicago Center

Login

Don't have an account? Register now (free) for customized features, flight alerts, and more!